Latest Weather Observations for Jandakot

IDW60801

Issued at 6:05 pm WST Saturday 30 August 2014 (issued every 30 minutes, with the page automatically refreshed every 10 minutes)

About weather observations | Map of weather stations | Latest weather observations for WA | Other Formats
Station Details ID: 009172 Name: JANDAKOT AERO Lat: -32.10 Lon: 115.88 Height: 30.0 m
Data from the previous 72 hours. | See also: Recent months at Jandakot
Date/Time
WST
Temp
°C
App
Temp
°C
Dew
Point
Rel
Hum
%
Delta-T
°C
Wind Press
QNH
hPa
Press
MSL
hPa
Rain
since 9 am
mm
Dir
 
Spd
km/h
Gust
km/h
Spd
kts
Gust
kts
30/06:00pm 15.6 13.4 9.2 65 3.3 WSW 11 13 6 7 1017.3 1017.2 0.0
30/05:30pm 16.1 14.6 10.6 70 2.9 SW 9 13 5 7 1017.0 - 0.0
30/05:00pm 16.5 14.5 10.3 67 3.3 SW 11 19 6 10 1017.0 - 0.0
30/04:30pm 16.8 13.4 9.3 61 3.9 WSW 17 26 9 14 1016.8 - 0.0
30/04:00pm 16.8 13.0 9.7 63 3.7 SW 20 28 11 15 1016.6 - 0.0
30/03:30pm 17.4 14.9 10.9 65 3.5 SW 15 24 8 13 1016.3 - 0.0
30/03:00pm 17.5 13.9 9.7 60 4.1 WSW 19 24 10 13 1016.2 1016.1 0.0
30/02:30pm 17.2 13.6 9.8 61 3.9 SW 19 26 10 14 1016.0 - 0.0
30/02:00pm 18.0 15.6 10.1 60 4.2 SW 13 19 7 10 1015.7 - 0.0
30/01:30pm 17.6 15.2 11.5 67 3.3 SW 15 20 8 11 1015.8 - 0.0
30/01:00pm 17.8 16.5 12.4 70 3.0 S 11 17 6 9 1016.0 - 0.0
30/12:30pm 17.2 14.9 11.9 71 2.9 SSW 15 20 8 11 1016.1 - 0.0
30/12:00pm 17.1 15.4 12.4 74 2.6 SSW 13 20 7 11 1016.4 1016.3 0.0
30/11:30am 16.6 15.4 12.8 78 2.1 S 11 19 6 10 1016.4 - 0.0
30/11:00am 15.9 15.2 13.2 84 1.5 S 9 15 5 8 1016.7 - 0.0
30/10:30am 15.6 13.4 13.3 86 1.3 S 17 22 9 12 1016.7 - 0.0
30/10:00am 16.5 14.6 13.1 80 1.9 S 15 20 8 11 1016.5 - 0.0
30/09:30am 16.3 14.8 14.2 87 1.2 S 15 19 8 10 1016.4 - 0.0
30/09:00am 15.8 14.4 14.4 91 0.8 S 15 20 8 11 1016.2 1016.1 55.8
30/08:30am 15.0 13.5 14.1 94 0.5 S 15 24 8 13 1016.3 - 55.8
30/08:15am 15.1 14.1 14.6 97 0.3 S 13 20 7 11 1016.0 - 55.8
30/08:00am 15.2 13.9 14.7 97 0.3 SSW 15 24 8 13 1015.8 - 55.8
30/07:30am 15.1 15.3 14.6 97 0.3 SSW 7 11 4 6 1015.2 - 55.8
30/07:00am 15.0 14.8 14.6 97 0.2 S 9 13 5 7 1014.7 - 55.8
30/06:30am 15.0 14.7 14.5 97 0.3 S 9 11 5 6 1014.3 - 55.6
30/06:00am 15.0 14.4 14.5 97 0.3 SSW 11 19 6 10 1014.1 1014.0 55.6
30/05:55am 15.0 14.0 14.5 97 0.3 SSW 13 19 7 10 1014.0 - 55.6
30/05:44am 15.1 13.4 14.6 97 0.3 SSW 17 22 9 12 1013.8 - 55.6
30/05:33am 15.3 14.5 15.0 98 0.2 SW 13 19 7 10 1013.7 - 55.4
30/05:30am 15.2 14.3 14.9 98 0.2 WSW 13 19 7 10 1013.8 - 55.4
30/05:14am 15.1 14.2 14.8 98 0.2 WSW 13 19 7 10 1013.6 - 55.2
30/05:08am 15.1 13.8 14.8 98 0.2 WSW 15 19 8 10 1013.5 - 55.2
30/05:00am 15.2 13.6 14.9 98 0.2 WSW 17 26 9 14 1013.5 - 55.2
30/04:30am 15.5 13.6 15.2 98 0.2 W 19 26 10 14 1013.2 - 54.6
30/04:29am 15.5 13.6 15.2 98 0.2 W 19 26 10 14 1013.2 - 54.6
30/04:18am 15.6 14.9 15.3 98 0.2 WSW 13 17 7 9 1013.1 - 53.6
30/04:15am 15.5 14.4 15.2 98 0.2 WSW 15 19 8 10 1013.0 - 53.4
30/04:00am 15.4 13.2 14.9 97 0.3 WSW 20 26 11 14 1013.0 - 52.4
30/03:39am 15.6 13.7 15.3 98 0.2 SW 19 24 10 13 1012.9 - 50.2
30/03:30am 15.7 13.7 15.4 98 0.2 W 20 28 11 15 1013.0 - 50.0
30/03:00am 15.2 15.5 15.0 99 0.1 NNE 7 11 4 6 1013.3 1013.2 49.4
30/02:30am 15.1 15.0 14.9 99 0.1 N 9 11 5 6 1013.0 - 49.4
30/02:09am 14.9 14.3 14.7 99 0.1 NNE 11 15 6 8 1013.4 - 49.4
30/02:00am 14.9 14.3 14.7 99 0.1 NNE 11 13 6 7 1013.6 - 49.4
30/01:30am 15.0 15.2 14.6 97 0.2 NNE 7 9 4 5 1013.7 - 48.6
30/01:00am 14.9 15.0 14.5 97 0.2 N 7 9 4 5 1013.7 - 48.4
30/12:30am 14.9 14.2 14.4 97 0.3 N 11 15 6 8 1013.6 - 48.2
30/12:20am 14.9 14.6 14.4 97 0.3 N 9 11 5 6 1013.8 - 48.2
30/12:01am 14.7 14.0 14.2 97 0.3 NW 11 15 6 8 1013.9 - 48.0
30/12:00am 14.8 14.1 14.3 97 0.3 NW 11 15 6 8 1013.9 1013.8 48.0
 
Date/Time
WST
Temp
°C
App
Temp
°C
Dew
Point
Rel
Hum
%
Delta-T
°C
Wind Press
QNH
hPa
Press
MSL
hPa
Rain
since 9 am
mm
Dir
 
Spd
km/h
Gust
km/h
Spd
kts
Gust
kts
29/11:30pm 15.1 13.0 14.6 97 0.3 W 19 20 10 11 1014.3 - 46.8
29/11:00pm 15.2 14.6 14.7 97 0.3 NW 11 17 6 9 1014.4 - 45.8
29/10:30pm 15.2 15.0 14.7 97 0.3 NNW 9 11 5 6 1014.5 - 44.8
29/10:11pm 15.2 14.6 14.7 97 0.3 NNW 11 15 6 8 1014.5 - 44.6
29/10:00pm 15.3 15.1 14.8 97 0.3 NNW 9 13 5 7 1014.6 - 43.8
29/09:30pm 15.4 14.8 14.7 96 0.4 NW 11 15 6 8 1014.4 - 43.2
29/09:00pm 15.9 15.1 15.2 96 0.4 WNW 13 15 7 8 1014.3 1014.2 42.2
29/08:33pm 16.4 15.1 15.9 97 0.3 NNW 17 20 9 11 1014.1 - 42.0
29/08:30pm 16.4 15.1 15.9 97 0.3 NNW 17 20 9 11 1014.2 - 42.0
29/08:00pm 16.4 16.3 15.9 97 0.3 WNW 11 15 6 8 1014.7 - 40.2
29/07:30pm 16.4 17.1 15.7 96 0.4 NW 6 7 3 4 1013.9 - 39.0
29/07:17pm 16.4 17.0 15.7 96 0.4 NW 7 11 4 6 1013.8 - 38.8
29/07:00pm 16.3 16.0 15.4 94 0.5 WNW 11 15 6 8 1013.8 - 37.6
29/06:30pm 16.6 14.6 15.4 93 0.7 W 20 28 11 15 1013.7 - 35.6
29/06:00pm 17.1 16.8 16.4 96 0.4 WNW 13 19 7 10 1012.9 1012.8 33.6
29/05:54pm 17.1 16.8 16.4 96 0.4 WNW 13 17 7 9 1012.9 - 33.6
29/05:31pm 17.1 16.4 16.4 96 0.4 WNW 15 20 8 11 1012.9 - 33.6
29/05:30pm 17.1 16.8 16.4 96 0.4 WNW 13 20 7 11 1012.9 - 33.6
29/05:24pm 17.1 15.6 16.4 96 0.4 WNW 19 28 10 15 1013.0 - 33.6
29/05:13pm 17.2 15.6 16.4 95 0.5 W 20 26 11 14 1013.1 - 32.0
29/05:00pm 17.5 15.5 16.5 94 0.6 W 22 43 12 23 1013.1 - 30.4
29/04:30pm 17.6 13.7 16.4 93 0.7 NW 32 43 17 23 1012.9 - 29.0
29/04:00pm 18.2 15.7 16.2 88 1.2 WNW 24 32 13 17 1012.9 - 27.6
29/03:30pm 18.2 16.1 16.2 88 1.2 WNW 22 30 12 16 1012.7 - 27.6
29/03:16pm 18.0 16.0 16.5 91 0.9 WNW 22 33 12 18 1012.8 - 27.6
29/03:00pm 17.9 17.3 16.7 93 0.7 WNW 15 19 8 10 1012.9 1012.8 27.6
29/02:30pm 17.4 15.4 16.4 94 0.6 WNW 22 30 12 16 1013.1 - 27.4
29/02:19pm 17.3 15.2 16.3 94 0.6 WNW 22 28 12 15 1013.2 - 27.4
29/02:08pm 17.2 14.9 15.8 91 0.8 WNW 22 32 12 17 1013.2 - 27.4
29/02:00pm 17.5 15.7 16.0 91 0.9 WNW 20 24 11 13 1013.2 - 27.0
29/01:30pm 17.2 16.0 16.2 94 0.6 WNW 17 24 9 13 1013.2 - 27.0
29/01:00pm 17.0 16.2 16.2 95 0.5 W 15 20 8 11 1013.2 - 26.8
29/12:39pm 16.5 15.7 16.0 97 0.3 WSW 15 19 8 10 1013.3 - 26.4
29/12:37pm 16.5 16.0 16.0 97 0.3 WSW 13 19 7 10 1013.4 - 26.4
29/12:30pm 16.0 15.7 15.5 97 0.3 WSW 11 24 6 13 1013.5 - 26.4
29/12:10pm 16.7 12.4 15.8 94 0.5 W 33 46 18 25 1013.7 - 23.0
29/12:00pm 17.3 14.9 16.3 94 0.6 W 24 37 13 20 1013.1 1013.0 18.0
29/11:46am 17.9 15.0 16.2 90 1.0 W 26 44 14 24 1013.4 - 9.6
29/11:30am 18.1 16.6 16.8 92 0.8 WNW 20 30 11 16 1013.2 - 6.4
29/11:15am 17.9 16.4 16.7 93 0.7 W 20 28 11 15 1013.3 - 6.0
29/11:04am 17.6 14.4 16.3 92 0.8 WNW 28 37 15 20 1013.4 - 5.8
29/11:00am 17.7 14.5 16.4 92 0.8 W 28 37 15 20 1013.3 - 5.4
29/10:47am 17.9 14.9 16.7 93 0.7 WNW 28 35 15 19 1013.3 - 4.2
29/10:30am 17.7 13.6 16.5 93 0.7 WNW 33 46 18 25 1013.4 - 4.0
29/10:27am 18.0 13.9 16.5 91 0.9 WNW 33 46 18 25 1013.5 - 3.2
29/10:00am 20.9 16.1 15.7 72 3.1 NNW 35 48 19 26 1013.1 - 0.0
29/09:44am 20.1 16.3 15.7 76 2.6 NNW 30 52 16 28 1013.1 - 0.0
29/09:30am 19.6 17.1 16.1 80 2.1 NNW 24 32 13 17 1013.2 - 0.0
29/09:00am 18.7 16.1 15.8 83 1.7 N 24 33 13 18 1013.3 1013.2 0.0
29/08:30am 17.8 15.8 15.4 86 1.4 N 20 24 11 13 1013.4 - 0.0
29/08:00am 17.0 14.6 15.3 90 1.0 N 22 30 12 16 1013.0 - 0.0
29/07:30am 16.7 14.5 15.0 90 1.0 N 20 26 11 14 1012.8 - 0.0
29/07:00am 16.5 13.5 14.9 90 0.9 N 24 32 13 17 1012.7 - 0.0
29/06:30am 16.4 14.2 14.8 90 0.9 N 20 28 11 15 1012.8 - 0.0
29/06:00am 16.1 14.5 14.9 93 0.7 N 17 20 9 11 1012.8 1012.7 0.0
29/05:48am 15.9 14.2 14.7 93 0.7 NNE 17 22 9 12 1012.9 - 0.0
29/05:30am 15.8 13.7 14.6 93 0.7 N 19 24 10 13 1012.8 - 0.0
29/05:21am 15.7 13.6 14.7 94 0.6 N 19 22 10 12 1012.8 - 0.0
29/05:00am 15.5 13.7 14.4 93 0.6 N 17 24 9 13 1012.9 - 0.0
29/04:30am 15.3 14.6 14.2 93 0.6 N 11 19 6 10 1013.0 - 0.0
29/04:00am 15.0 14.2 13.9 93 0.6 NNE 11 15 6 8 1013.0 - 0.0
29/03:30am 15.2 13.7 14.1 93 0.6 N 15 24 8 13 1013.1 - 0.0
29/03:00am 14.9 13.3 13.8 93 0.6 NNE 15 20 8 11 1013.3 1013.2 0.0
29/02:30am 14.8 13.2 13.9 94 0.5 NNE 15 19 8 10 1013.5 - 0.0
29/02:00am 15.0 13.8 14.1 94 0.5 N 13 15 7 8 1013.8 - 0.0
29/01:30am 14.8 13.3 14.1 96 0.4 NNE 15 17 8 9 1013.9 - 0.0
29/01:00am 14.4 13.0 13.5 94 0.5 NNE 13 15 7 8 1014.1 - 0.0
29/12:30am 14.7 13.8 13.8 94 0.5 NNE 11 13 6 7 1014.2 - 0.0
29/12:00am 15.1 14.3 14.0 93 0.6 N 11 13 6 7 1014.3 1014.2 0.0
 
Date/Time
WST
Temp
°C
App
Temp
°C
Dew
Point
Rel
Hum
%
Delta-T
°C
Wind Press
QNH
hPa
Press
MSL
hPa
Rain
since 9 am
mm
Dir
 
Spd
km/h
Gust
km/h
Spd
kts
Gust
kts
28/11:30pm 15.5 14.8 14.4 93 0.6 N 11 13 6 7 1014.7 - 0.0
28/11:00pm 15.6 14.9 14.4 93 0.7 N 11 13 6 7 1015.0 - 0.0
28/10:30pm 16.0 15.0 14.6 91 0.8 NNE 13 15 7 8 1015.1 - 0.0
28/10:00pm 17.8 17.2 15.6 87 1.3 N 13 19 7 10 1015.3 - 0.0
28/09:30pm 18.6 17.7 15.9 84 1.6 NNW 15 20 8 11 1015.5 - 0.0
28/09:00pm 18.6 18.5 16.9 90 1.0 NNW 13 19 7 10 1015.8 1015.7 0.0
28/08:30pm 18.4 18.6 16.7 90 1.0 NNW 11 15 6 8 1015.9 - 0.0
28/08:00pm 18.7 18.9 16.7 88 1.2 NNW 11 15 6 8 1015.6 - 0.0
28/07:30pm 18.9 18.2 16.4 85 1.5 NNW 15 19 8 10 1015.6 - 0.0
28/07:00pm 19.0 18.5 16.0 83 1.8 NNW 13 19 7 10 1015.5 - 0.0
28/06:30pm 19.1 18.5 15.7 80 2.0 NNW 13 17 7 9 1015.2 - 0.0
28/06:00pm 19.6 18.5 15.2 76 2.6 NNW 15 20 8 11 1015.1 1015.0 0.0
28/05:30pm 20.1 17.7 14.4 69 3.3 NNW 20 28 11 15 1014.9 - 0.0
28/05:00pm 20.4 18.0 14.4 68 3.5 NNW 20 28 11 15 1014.8 - 0.0
28/04:30pm 20.7 17.6 14.4 67 3.7 NNW 24 35 13 19 1014.6 - 0.0
28/04:00pm 20.9 17.9 13.6 63 4.2 NW 22 30 12 16 1014.9 - 0.0
28/03:30pm 21.4 17.0 12.8 58 4.9 NW 28 35 15 19 1014.8 - 0.0
28/03:00pm 21.7 16.5 10.3 48 6.2 NW 28 37 15 20 1014.9 1014.8 0.0
28/02:30pm 22.5 18.1 10.5 46 6.6 NW 24 33 13 18 1015.0 - 0.0
28/02:00pm 23.2 17.2 8.8 39 7.7 NW 30 43 16 23 1015.2 - 0.0
28/01:30pm 22.4 16.1 7.4 38 7.8 NNW 30 39 16 21 1015.2 - 0.0
28/01:00pm 22.6 16.1 6.6 35 8.2 NNW 30 39 16 21 1015.5 - 0.0
28/12:30pm 23.1 17.1 7.1 35 8.3 NNW 28 37 15 20 1015.9 - 0.0
28/12:00pm 22.4 16.4 5.1 32 8.6 NNW 26 33 14 18 1016.0 1015.9 0.0
28/11:30am 21.4 17.6 7.4 40 7.2 N 17 20 9 11 1016.4 - 0.0
28/11:00am 20.1 16.4 8.1 46 6.2 N 17 22 9 12 1016.6 - 0.0
28/10:30am 18.0 14.9 9.0 55 4.7 N 15 20 8 11 1016.6 - 0.0
28/10:00am 17.4 13.6 9.1 58 4.3 N 19 24 10 13 1016.8 - 0.0
28/09:30am 16.2 12.3 8.8 61 3.8 N 19 22 10 12 1016.9 - 0.0
28/09:00am 15.9 12.0 8.6 62 3.7 N 19 24 10 13 1017.2 1017.1 -
28/08:30am 14.7 10.8 8.8 68 3.0 N 19 24 10 13 1016.9 - -
28/08:00am 14.1 10.7 9.0 71 2.6 N 17 20 9 11 1016.9 - -
28/07:30am 13.1 10.5 9.4 78 1.9 N 13 17 7 9 1016.9 - -
28/07:00am 12.7 10.0 8.9 78 1.9 N 13 17 7 9 1016.7 - -
28/06:30am 12.6 9.9 8.8 77 1.9 N 13 15 7 8 1016.6 - -
28/06:00am 12.2 9.5 9.0 81 1.6 N 13 15 7 8 1016.3 1016.2 -
28/05:30am 11.7 9.4 9.1 84 1.3 N 11 13 6 7 1016.4 - -
28/05:00am 11.5 8.9 9.5 87 1.0 N 13 15 7 8 1016.2 - -
28/04:30am 10.1 8.3 9.3 95 0.4 NNE 9 11 5 6 1016.2 - -
28/04:00am 9.6 9.3 8.8 95 0.4 CALM 0 0 0 0 1016.3 - -
28/03:30am 9.5 9.2 8.7 95 0.4 CALM 0 0 0 0 1016.4 - -
28/03:00am 9.7 9.5 8.9 95 0.4 CALM 0 0 0 0 1016.4 1016.3 -
28/02:30am 9.6 8.0 8.8 95 0.4 NNE 7 9 4 5 1016.7 - -
28/02:00am 9.4 8.7 8.6 95 0.4 ENE 2 7 1 4 1017.1 - -
28/01:30am 9.3 8.6 8.5 95 0.4 ENE 2 7 1 4 1017.4 - -
28/01:00am 9.7 9.4 8.5 92 0.6 CALM 0 0 0 0 1017.8 - -
28/12:30am 9.4 9.0 8.2 92 0.6 CALM 0 0 0 0 1017.9 - -
28/12:00am 8.8 8.3 7.7 93 0.5 CALM 0 0 0 0 1018.1 1018.1 -
 
Date/Time
WST
Temp
°C
App
Temp
°C
Dew
Point
Rel
Hum
%
Delta-T
°C
Wind Press
QNH
hPa
Press
MSL
hPa
Rain
since 9 am
mm
Dir
 
Spd
km/h
Gust
km/h
Spd
kts
Gust
kts
27/11:30pm 8.7 6.8 7.6 93 0.5 ENE 7 9 4 5 1018.4 - -
27/11:00pm 9.2 8.1 8.4 95 0.4 NNE 4 11 2 6 1019.0 - -
27/10:30pm 10.3 10.0 8.7 90 0.8 CALM 0 0 0 0 1019.4 - -
27/10:00pm 11.4 10.2 9.6 89 0.9 NE 6 9 3 5 1019.7 - -
27/09:30pm 11.8 10.5 9.8 87 1.0 NE 7 9 4 5 1019.5 - -
27/09:00pm 11.7 10.0 9.7 87 1.0 ENE 9 13 5 7 1019.7 1019.7 -
27/08:30pm 11.7 9.9 9.5 86 1.1 NE 9 11 5 6 1020.0 - -
27/08:00pm 12.8 12.9 10.1 84 1.4 CALM 0 0 0 0 1020.2 - -
27/07:30pm 12.2 10.5 9.8 85 1.2 NE 9 11 5 6 1019.9 - -
27/07:00pm 12.8 12.8 9.7 81 1.6 CALM 0 0 0 0 1020.0 - -
27/06:30pm 14.8 14.9 10.2 74 2.4 CALM 0 0 0 0 1020.1 - -

Other Formats:

Comma delimited format used in spreadsheet applications
http://www.bom.gov.au/fwo/IDW60801/IDW60801.94609.axf

JavaScript Object Notation format (JSON) in row-major order
http://www.bom.gov.au/fwo/IDW60801/IDW60801.94609.json